createdAt,value
2019-02-03T00:01:14.832Z,38.30
2019-02-03T00:03:51.848Z,50.30
2019-02-03T00:06:25.571Z,48.63
2019-02-03T00:08:57.833Z,48.47
2019-02-03T00:12:33.273Z,48.27
2019-02-03T00:15:25.116Z,44.07
2019-02-03T00:18:34.770Z,47.27
2019-02-03T00:22:20.042Z,48.53
2019-02-03T00:25:06.293Z,49.73
2019-02-03T00:28:09.787Z,49.60
2019-02-03T00:30:56.552Z,43.17
2019-02-03T00:37:18.470Z,47.77
2019-02-03T00:39:54.350Z,46.93
2019-02-03T00:49:23.667Z,45.30
2019-02-03T00:52:32.412Z,51.03
2019-02-03T00:55:47.098Z,45.17
2019-02-03T00:58:44.389Z,52.63
2019-02-03T01:01:24.564Z,49.53
2019-02-03T01:03:56.473Z,52.60
2019-02-03T01:06:28.406Z,51.80
2019-02-03T01:09:00.030Z,46.13
2019-02-03T01:11:31.946Z,50.30
2019-02-03T01:14:03.544Z,50.57
2019-02-03T01:16:35.050Z,46.70
2019-02-03T01:19:06.723Z,47.23
2019-02-03T01:21:38.217Z,50.40
2019-02-03T01:24:09.736Z,49.67
2019-02-03T01:26:41.240Z,47.93
2019-02-03T01:29:12.772Z,41.53
2019-02-03T01:31:44.265Z,47.60
2019-02-03T01:34:15.800Z,42.20
2019-02-03T01:36:47.598Z,43.27
2019-02-03T01:39:19.100Z,46.40
2019-02-03T01:41:50.658Z,45.30
2019-02-03T01:44:23.235Z,51.27
2019-02-03T01:46:54.836Z,45.73
2019-02-03T01:49:26.440Z,46.00
2019-02-03T01:51:57.963Z,49.50
2019-02-03T01:54:29.711Z,50.87
2019-02-03T01:57:01.196Z,48.53
2019-02-03T01:59:33.438Z,46.13
2019-02-03T02:02:05.111Z,48.50
2019-02-03T02:04:36.787Z,47.60
2019-02-03T02:07:08.254Z,46.10
2019-02-03T02:09:39.728Z,47.50
2019-02-03T02:12:11.586Z,38.90
2019-02-03T02:14:43.142Z,51.33
2019-02-03T02:17:14.711Z,44.90
2019-02-03T02:19:46.202Z,45.43
2019-02-03T02:22:17.653Z,47.00
2019-02-03T02:24:49.182Z,42.63
2019-02-03T02:27:20.666Z,43.40
2019-02-03T02:29:54.715Z,45.73
2019-02-03T02:32:26.196Z,37.23
2019-02-03T02:34:59.738Z,43.43
2019-02-03T02:37:31.714Z,42.00
2019-02-03T02:40:12.094Z,35.43
2019-02-03T02:42:36.518Z,44.57
2019-02-03T02:45:08.902Z,42.30
2019-02-03T02:47:40.579Z,40.90
2019-02-03T02:50:36.708Z,36.23
2019-02-03T02:53:08.274Z,41.13
2019-02-03T02:55:39.824Z,44.50
2019-02-03T02:58:30.602Z,39.63
2019-02-03T03:01:02.056Z,42.13
2019-02-03T03:03:33.999Z,37.70
2019-02-03T03:06:07.285Z,39.87
2019-02-03T03:08:38.794Z,42.70
2019-02-03T03:11:10.421Z,43.10
2019-02-03T03:13:43.032Z,40.60
2019-02-03T03:16:14.558Z,38.70
2019-02-03T03:18:46.008Z,40.67
2019-02-03T03:21:17.470Z,38.67
2019-02-03T03:23:48.902Z,40.20
2019-02-03T03:26:20.667Z,42.00
2019-02-03T03:28:52.221Z,45.63
2019-02-03T03:31:23.653Z,39.13
2019-02-03T03:33:55.097Z,37.60
2019-02-03T03:36:26.567Z,40.00
2019-02-03T03:38:58.125Z,39.83
2019-02-03T03:41:29.580Z,34.20
2019-02-03T03:44:01.024Z,39.20
2019-02-03T03:46:32.503Z,32.70
2019-02-03T03:49:04.065Z,40.60
2019-02-03T03:51:35.623Z,39.57
2019-02-03T03:54:07.363Z,39.30
2019-02-03T03:56:38.849Z,39.17
2019-02-03T03:59:10.271Z,30.10
2019-02-03T04:01:42.158Z,39.73
2019-02-03T04:04:16.484Z,39.13
2019-02-03T04:06:48.149Z,41.17
2019-02-03T04:09:22.801Z,32.53
2019-02-03T04:11:54.323Z,36.13
2019-02-03T04:14:25.813Z,38.03
2019-02-03T04:16:57.275Z,31.30
2019-02-03T04:19:28.752Z,30.10
2019-02-03T04:22:00.177Z,35.17
2019-02-03T04:24:32.193Z,32.77
2019-02-03T04:27:03.699Z,29.63
2019-02-03T04:29:35.118Z,29.20
2019-02-03T04:32:06.722Z,19.30
2019-02-03T04:34:38.176Z,25.17
2019-02-03T04:37:09.996Z,30.10
2019-02-03T04:39:41.437Z,33.23
2019-02-03T04:42:12.971Z,32.87
2019-02-03T04:44:44.397Z,18.63
2019-02-03T04:47:15.929Z,25.20
2019-02-03T04:49:47.496Z,32.47
2019-02-03T04:52:19.042Z,28.27
2019-02-03T04:54:50.529Z,31.90
2019-02-03T04:57:21.991Z,28.70
2019-02-03T04:59:53.562Z,18.53
2019-02-03T05:02:25.081Z,25.63
2019-02-03T05:04:56.706Z,27.00
2019-02-03T05:07:28.404Z,30.87
2019-02-03T05:09:59.881Z,30.30
2019-02-03T05:12:31.636Z,32.60
2019-02-03T05:15:03.140Z,30.30
2019-02-03T05:17:34.673Z,23.47
2019-02-03T05:20:08.493Z,27.03
2019-02-03T05:22:39.951Z,25.50
2019-02-03T05:25:12.770Z,28.50
2019-02-03T05:27:56.423Z,29.93
2019-02-03T05:30:32.711Z,25.00
2019-02-03T05:33:05.426Z,22.10
2019-02-03T05:35:36.904Z,26.63
2019-02-03T05:38:08.389Z,24.40
2019-02-03T05:40:39.820Z,23.90
2019-02-03T05:43:11.272Z,24.87
2019-02-03T05:45:42.738Z,25.13
2019-02-03T05:48:14.227Z,27.67
2019-02-03T05:50:45.689Z,21.87
2019-02-03T05:53:17.187Z,24.60
2019-02-03T05:55:48.622Z,23.90
2019-02-03T05:58:20.355Z,23.53
2019-02-03T06:00:51.835Z,26.20
2019-02-03T06:03:23.292Z,24.90
2019-02-03T06:05:54.738Z,25.63
2019-02-03T06:08:26.474Z,24.07
2019-02-03T06:10:57.919Z,23.00
2019-02-03T06:13:29.359Z,25.13
2019-02-03T06:16:00.825Z,23.47
2019-02-03T06:18:32.266Z,24.03
2019-02-03T06:21:03.940Z,24.03
2019-02-03T06:23:35.541Z,21.47
2019-02-03T06:26:07.228Z,24.17
2019-02-03T06:28:38.774Z,23.67
2019-02-03T06:31:17.336Z,21.90
2019-02-03T06:33:50.764Z,19.47
2019-02-03T06:36:23.219Z,22.07
2019-02-03T06:38:59.572Z,21.60
2019-02-03T06:41:31.508Z,20.80
2019-02-03T06:44:02.958Z,20.00
2019-02-03T06:46:56.158Z,24.13
2019-02-03T06:49:39.293Z,20.17
2019-02-03T06:52:10.952Z,18.37
2019-02-03T06:54:42.533Z,19.77
2019-02-03T06:57:14.022Z,21.73
2019-02-03T06:59:51.153Z,20.37
2019-02-03T07:02:19.297Z,18.80
2019-02-03T07:04:50.790Z,21.03
2019-02-03T07:07:22.264Z,16.00
2019-02-03T07:10:00.466Z,17.30
2019-02-03T07:12:27.015Z,21.27
2019-02-03T07:14:58.512Z,19.93
2019-02-03T07:17:29.940Z,19.00
2019-02-03T07:20:01.424Z,21.07
2019-02-03T07:22:32.855Z,22.80
2019-02-03T07:25:04.662Z,22.77
2019-02-03T07:27:36.214Z,21.40
2019-02-03T07:30:10.646Z,22.23
2019-02-03T07:32:42.188Z,20.67
2019-02-03T07:35:14.115Z,20.77
2019-02-03T07:37:45.722Z,18.13
2019-02-03T07:40:17.308Z,21.40
2019-02-03T07:42:48.882Z,18.33
2019-02-03T07:45:21.460Z,21.50
2019-02-03T07:47:52.981Z,15.57
2019-02-03T07:50:24.685Z,20.20
2019-02-03T07:52:56.267Z,19.10
2019-02-03T07:55:27.840Z,22.33
2019-02-03T07:57:59.435Z,20.47
2019-02-03T08:00:30.990Z,21.50
2019-02-03T08:03:02.390Z,20.63
2019-02-03T08:05:34.011Z,20.13
2019-02-03T08:08:05.677Z,19.93
2019-02-03T08:10:37.304Z,20.20
2019-02-03T08:13:09.017Z,20.20
2019-02-03T08:15:40.528Z,20.37
2019-02-03T08:18:12.200Z,18.40
2019-02-03T08:20:43.825Z,21.37
2019-02-03T08:23:15.792Z,18.10
2019-02-03T08:25:47.399Z,21.20
2019-02-03T08:28:18.993Z,20.43
2019-02-03T08:30:50.557Z,19.73
2019-02-03T08:33:22.196Z,18.50
2019-02-03T08:35:54.620Z,18.10
2019-02-03T08:38:26.091Z,19.93
2019-02-03T08:40:58.096Z,22.23
2019-02-03T08:43:29.673Z,20.90
2019-02-03T08:46:01.243Z,18.90
2019-02-03T08:48:32.841Z,20.37
2019-02-03T08:51:04.783Z,16.03
2019-02-03T08:53:36.359Z,17.17
2019-02-03T08:56:08.170Z,19.57
2019-02-03T08:58:39.722Z,21.57
2019-02-03T09:01:11.265Z,21.40
2019-02-03T09:03:42.783Z,20.37
2019-02-03T09:06:14.272Z,21.63
2019-02-03T09:08:45.876Z,20.50
2019-02-03T09:11:20.088Z,20.67
2019-02-03T09:13:51.551Z,17.23
2019-02-03T09:16:26.347Z,19.77
2019-02-03T09:18:57.820Z,14.10
2019-02-03T09:21:29.581Z,20.43
2019-02-03T09:24:01.309Z,19.20
2019-02-03T09:26:32.859Z,20.60
2019-02-03T09:29:04.587Z,12.27
2019-02-03T09:31:37.343Z,18.27
2019-02-03T09:34:09.163Z,18.13
2019-02-03T09:36:40.954Z,18.40
2019-02-03T09:39:14.351Z,18.40
2019-02-03T09:41:45.988Z,15.50
2019-02-03T09:44:17.493Z,17.30
2019-02-03T09:46:49.104Z,16.83
2019-02-03T09:49:20.629Z,14.43
2019-02-03T09:51:53.924Z,15.93
2019-02-03T09:54:27.323Z,16.20
2019-02-03T09:57:02.395Z,13.33
2019-02-03T09:59:34.527Z,14.13
2019-02-03T10:02:06.481Z,13.63
2019-02-03T10:04:41.680Z,14.80
2019-02-03T10:07:14.081Z,14.47
2019-02-03T10:09:46.738Z,15.07
2019-02-03T10:12:19.365Z,10.30
2019-02-03T10:14:55.204Z,12.17
2019-02-03T10:17:28.970Z,10.10
2019-02-03T10:20:16.065Z,12.53
2019-02-03T10:22:47.851Z,11.70
2019-02-03T10:25:21.769Z,10.97
2019-02-03T10:27:53.931Z,11.87
2019-02-03T10:30:26.862Z,10.93
2019-02-03T10:32:59.031Z,10.20
2019-02-03T10:35:30.886Z,8.97
2019-02-03T10:38:02.582Z,8.90
2019-02-03T10:40:37.981Z,9.73
2019-02-03T10:43:10.346Z,10.17
2019-02-03T10:45:42.810Z,7.43
2019-02-03T10:48:14.287Z,8.80
2019-02-03T10:50:45.859Z,8.93
2019-02-03T10:53:17.393Z,6.40
2019-02-03T10:55:48.847Z,8.13
2019-02-03T10:58:20.414Z,7.40
2019-02-03T11:00:55.071Z,6.83
2019-02-03T11:03:25.357Z,8.60
2019-02-03T11:05:59.496Z,8.27
2019-02-03T11:08:31.297Z,8.67
2019-02-03T11:11:02.821Z,8.23
2019-02-03T11:13:34.783Z,7.20
2019-02-03T11:16:06.554Z,6.10
2019-02-03T11:18:38.121Z,9.30
2019-02-03T11:21:11.848Z,7.70
2019-02-03T11:23:43.504Z,6.67
2019-02-03T11:26:15.105Z,5.77
2019-02-03T11:28:46.853Z,4.77
2019-02-03T11:31:18.392Z,7.17
2019-02-03T11:33:50.083Z,6.77
2019-02-03T11:36:21.702Z,6.53
2019-02-03T11:38:53.258Z,5.23
2019-02-03T11:41:25.403Z,6.37
2019-02-03T11:43:57.046Z,5.73
2019-02-03T11:46:28.742Z,6.20
2019-02-03T11:49:00.630Z,5.93
2019-02-03T11:51:32.419Z,6.57
2019-02-03T11:54:07.272Z,6.23
2019-02-03T11:56:41.753Z,6.27
2019-02-03T11:59:13.381Z,3.90
2019-02-03T12:01:44.981Z,4.00
2019-02-03T12:04:16.938Z,5.13
2019-02-03T12:06:48.856Z,4.50
2019-02-03T12:09:21.351Z,6.27
2019-02-03T12:12:00.710Z,5.23
2019-02-03T12:14:26.191Z,5.13
2019-02-03T12:16:57.748Z,4.90
2019-02-03T12:19:29.345Z,5.50
2019-02-03T12:22:00.858Z,5.90
2019-02-03T12:24:35.746Z,6.90
2019-02-03T12:27:07.597Z,6.00
2019-02-03T12:29:39.512Z,5.10
2019-02-03T12:32:11.694Z,4.27
2019-02-03T12:34:43.510Z,4.40
2019-02-03T12:37:15.408Z,6.10
2019-02-03T12:39:46.982Z,5.47
2019-02-03T12:42:18.782Z,6.47
2019-02-03T12:44:51.680Z,5.43
2019-02-03T12:47:24.451Z,5.13
2019-02-03T12:49:56.544Z,6.10
2019-02-03T12:52:28.136Z,6.00
2019-02-03T12:54:59.734Z,4.97
2019-02-03T12:57:32.544Z,5.93
2019-02-03T13:00:10.252Z,5.50
2019-02-03T13:02:48.549Z,6.07
2019-02-03T13:05:32.476Z,6.80
2019-02-03T13:08:04.780Z,6.93
2019-02-03T13:10:41.432Z,4.90
2019-02-03T13:13:15.206Z,5.50
2019-02-03T13:15:51.217Z,5.50
2019-02-03T13:18:23.515Z,6.13
2019-02-03T13:20:55.500Z,6.23
2019-02-03T13:23:28.646Z,4.87
2019-02-03T13:26:00.578Z,5.17
2019-02-03T13:28:35.247Z,4.90
2019-02-03T13:31:07.922Z,6.67
2019-02-03T13:33:41.958Z,4.70
2019-02-03T13:36:14.213Z,5.13
2019-02-03T13:38:49.126Z,5.67
2019-02-03T13:41:22.588Z,5.60
2019-02-03T13:43:54.936Z,5.87
2019-02-03T13:46:28.193Z,5.47
2019-02-03T13:49:00.293Z,5.83
2019-02-03T13:51:35.097Z,4.43
2019-02-03T13:54:09.822Z,4.30
2019-02-03T13:56:42.084Z,5.50
2019-02-03T13:59:15.003Z,3.57
2019-02-03T14:01:51.961Z,5.20
2019-02-03T14:04:23.999Z,4.03
2019-02-03T14:06:58.498Z,5.10
2019-02-03T14:09:30.003Z,5.10
2019-02-03T14:12:01.496Z,6.07
2019-02-03T14:14:33.033Z,5.77
2019-02-03T14:17:04.654Z,4.47
2019-02-03T14:19:36.125Z,6.63
2019-02-03T14:22:08.024Z,5.97
2019-02-03T14:24:39.481Z,4.80
2019-02-03T14:27:11.010Z,6.27
2019-02-03T14:29:44.329Z,5.27
2019-02-03T14:32:15.806Z,6.53
2019-02-03T14:34:47.401Z,4.53
2019-02-03T14:37:18.957Z,5.87
2019-02-03T14:39:50.409Z,5.70
2019-02-03T14:42:21.948Z,6.13
2019-02-03T14:44:53.529Z,4.80
2019-02-03T14:47:25.159Z,5.03
2019-02-03T14:49:56.794Z,7.93
2019-02-03T14:52:28.347Z,6.87
2019-02-03T14:54:59.887Z,7.60
2019-02-03T14:57:32.670Z,4.90
2019-02-03T15:00:05.793Z,6.87
2019-02-03T15:02:37.875Z,7.40
2019-02-03T15:05:09.917Z,7.30
2019-02-03T15:07:41.506Z,9.50
2019-02-03T15:10:13.334Z,9.93
2019-02-03T15:12:45.066Z,8.97
2019-02-03T15:15:19.571Z,7.50
2019-02-03T15:17:51.141Z,9.30
2019-02-03T15:20:24.062Z,9.57
2019-02-03T15:23:01.627Z,9.60
2019-02-03T15:25:33.386Z,8.27
2019-02-03T15:28:12.138Z,8.73
2019-02-03T15:30:45.059Z,8.63
2019-02-03T15:33:17.399Z,9.30
2019-02-03T15:35:49.271Z,7.10
2019-02-03T15:38:20.890Z,8.57
2019-02-03T15:40:52.759Z,9.07
2019-02-03T15:43:25.886Z,8.13
2019-02-03T15:46:01.052Z,8.60
2019-02-03T15:48:32.931Z,8.90
2019-02-03T15:51:04.623Z,8.60
2019-02-03T15:53:36.273Z,7.77
2019-02-03T15:56:08.299Z,7.73
2019-02-03T15:58:42.106Z,7.27
2019-02-03T16:01:14.220Z,9.60
2019-02-03T16:03:47.493Z,8.33
2019-02-03T16:06:19.045Z,8.13
2019-02-03T16:08:50.591Z,7.20
2019-02-03T16:11:22.088Z,7.33
2019-02-03T16:13:55.667Z,5.67
2019-02-03T16:16:27.237Z,7.53
2019-02-03T16:18:58.745Z,5.13
2019-02-03T16:21:30.329Z,6.43
2019-02-03T16:24:05.223Z,6.93
2019-02-03T16:26:36.954Z,6.20
2019-02-03T16:29:08.911Z,6.43
2019-02-03T16:31:40.515Z,6.77
2019-02-03T16:34:12.645Z,7.67
2019-02-03T16:36:44.391Z,7.60
2019-02-03T16:39:16.049Z,6.03
2019-02-03T16:41:48.539Z,5.63
2019-02-03T16:44:22.898Z,5.43
2019-02-03T16:46:53.417Z,6.10
2019-02-03T16:49:25.032Z,6.33
2019-02-03T16:51:56.926Z,6.43
2019-02-03T16:54:30.573Z,5.63
2019-02-03T16:57:02.093Z,5.50
2019-02-03T16:59:33.660Z,5.20
2019-02-03T17:02:05.440Z,5.57
2019-02-03T17:04:36.949Z,5.37
2019-02-03T17:07:08.765Z,5.93
2019-02-03T17:09:40.388Z,5.20
2019-02-03T17:12:14.173Z,4.07
2019-02-03T17:14:45.107Z,4.97
2019-02-03T17:17:16.600Z,5.00
2019-02-03T17:19:48.326Z,5.10
2019-02-03T17:22:19.787Z,5.70
2019-02-03T17:24:53.940Z,4.80
2019-02-03T17:27:25.551Z,4.70
2019-02-03T17:29:57.347Z,5.80
2019-02-03T17:32:28.953Z,4.90
2019-02-03T17:35:00.463Z,5.87
2019-02-03T17:37:32.259Z,5.27
2019-02-03T17:40:04.151Z,5.30
2019-02-03T17:42:35.911Z,3.60
2019-02-03T17:45:13.018Z,4.90
2019-02-03T17:47:44.892Z,5.13
2019-02-03T17:50:20.635Z,4.63
2019-02-03T17:53:03.986Z,5.80
2019-02-03T17:55:38.066Z,5.40
2019-02-03T17:58:09.542Z,3.70
2019-02-03T18:00:52.084Z,5.10
2019-02-03T18:03:24.497Z,4.90
2019-02-03T18:05:56.650Z,4.70
2019-02-03T18:08:28.226Z,4.70
2019-02-03T18:10:59.817Z,4.80
2019-02-03T18:13:31.510Z,3.20
2019-02-03T18:16:03.210Z,3.30
2019-02-03T18:18:35.222Z,4.33
2019-02-03T18:21:06.926Z,4.13
2019-02-03T18:23:40.103Z,3.60
2019-02-03T18:26:11.656Z,3.10
2019-02-03T18:28:43.203Z,3.10
2019-02-03T18:31:33.900Z,3.60
2019-02-03T18:34:05.968Z,3.67
2019-02-03T18:36:37.575Z,3.40
2019-02-03T18:39:10.712Z,4.33
2019-02-03T18:41:44.039Z,3.23
2019-02-03T18:44:15.769Z,3.77
2019-02-03T18:46:48.370Z,3.20
2019-02-03T18:49:19.999Z,4.30
2019-02-03T18:51:53.317Z,3.17
2019-02-03T18:54:24.990Z,3.40
2019-02-03T18:56:56.568Z,3.23
2019-02-03T18:59:28.266Z,3.10
2019-02-03T19:02:00.194Z,3.43
2019-02-03T19:04:31.900Z,3.70
2019-02-03T19:07:04.034Z,3.70
2019-02-03T19:09:35.639Z,4.20
2019-02-03T19:12:07.803Z,4.00
2019-02-03T19:14:47.100Z,3.97
2019-02-03T19:17:13.710Z,3.27
2019-02-03T19:19:45.680Z,3.80
2019-02-03T19:22:17.510Z,3.60
2019-02-03T19:24:49.322Z,3.80
2019-02-03T19:27:20.947Z,3.30
2019-02-03T19:29:53.975Z,4.30
2019-02-03T19:32:25.573Z,3.70
2019-02-03T19:34:57.118Z,3.53
2019-02-03T19:37:29.153Z,4.73
2019-02-03T19:40:00.765Z,3.60
2019-02-03T19:42:32.790Z,4.40
2019-02-03T19:45:04.754Z,4.47
2019-02-03T19:47:36.538Z,4.50
2019-02-03T19:50:11.886Z,4.10
2019-02-03T19:52:43.601Z,4.53
2019-02-03T19:55:16.516Z,4.00
2019-02-03T19:57:50.961Z,4.20
2019-02-03T20:00:33.391Z,4.17
2019-02-03T20:03:06.285Z,5.30
2019-02-03T20:05:38.382Z,4.73
2019-02-03T20:08:12.535Z,4.73
2019-02-03T20:10:45.409Z,5.10
2019-02-03T20:13:17.351Z,5.00
2019-02-03T20:15:52.258Z,5.23
2019-02-03T20:18:24.498Z,5.00
2019-02-03T20:20:57.198Z,5.07
2019-02-03T20:23:29.420Z,5.23
2019-02-03T20:26:01.202Z,4.97
2019-02-03T20:28:39.285Z,4.67
2019-02-03T20:31:13.349Z,5.50
2019-02-03T20:33:45.317Z,4.70
2019-02-03T20:36:22.277Z,4.17
2019-02-03T20:38:54.307Z,4.90
2019-02-03T20:41:32.302Z,4.67
2019-02-03T20:44:19.283Z,4.80
2019-02-03T20:46:51.326Z,6.27
2019-02-03T20:49:23.319Z,4.83
2019-02-03T20:51:55.266Z,3.30
2019-02-03T20:57:08.597Z,4.03
2019-02-03T20:59:40.408Z,3.60
2019-02-03T21:02:12.460Z,4.50
2019-02-03T21:04:44.346Z,3.80
2019-02-03T21:07:17.260Z,4.63
2019-02-03T21:09:51.957Z,3.70
2019-02-03T21:12:23.491Z,4.53
2019-02-03T21:14:55.424Z,4.60
2019-02-03T21:17:27.324Z,3.97
2019-02-03T21:19:59.164Z,3.50
2019-02-03T21:22:31.063Z,3.87
2019-02-03T21:25:03.053Z,4.10
2019-02-03T21:27:35.191Z,3.90
2019-02-03T21:30:11.087Z,3.60
2019-02-03T21:32:42.668Z,4.57
2019-02-03T21:35:14.492Z,4.30
2019-02-03T21:37:46.000Z,4.87
2019-02-03T21:40:21.621Z,4.30
2019-02-03T21:42:53.603Z,4.17
2019-02-03T21:45:43.919Z,3.70
2019-02-03T21:48:11.005Z,4.07
2019-02-03T21:50:47.647Z,5.40
2019-02-03T21:53:19.280Z,4.80
2019-02-03T21:55:51.228Z,5.27
2019-02-03T21:58:22.808Z,4.43
2019-02-03T22:00:54.423Z,4.10
2019-02-03T22:03:26.128Z,3.43
2019-02-03T22:05:57.887Z,3.70
2019-02-03T22:08:29.718Z,4.30
2019-02-03T22:11:01.838Z,4.23
2019-02-03T22:13:33.975Z,3.17
2019-02-03T22:16:06.759Z,3.40
2019-02-03T22:18:40.705Z,3.17
2019-02-03T22:21:12.893Z,4.03
2019-02-03T22:23:44.963Z,3.90
2019-02-03T22:26:16.561Z,3.40
2019-02-03T22:28:48.144Z,3.50
2019-02-03T22:31:20.106Z,4.13
2019-02-03T22:33:51.601Z,3.00
2019-02-03T22:36:23.179Z,4.20
2019-02-03T22:38:54.822Z,3.60
2019-02-03T22:41:47.138Z,3.37
2019-02-03T22:44:21.592Z,3.80
2019-02-03T22:46:53.176Z,4.87
2019-02-03T22:49:24.857Z,4.30
2019-02-03T22:51:56.689Z,3.70
2019-02-03T22:54:28.194Z,3.67
2019-02-03T22:56:59.805Z,3.33
2019-02-03T22:59:31.319Z,3.50
2019-02-03T23:02:03.997Z,3.50
2019-02-03T23:04:38.676Z,3.90
2019-02-03T23:07:10.280Z,3.63
2019-02-03T23:09:41.948Z,3.97
2019-02-03T23:12:13.441Z,4.17
2019-02-03T23:14:52.226Z,3.90
2019-02-03T23:17:23.880Z,4.23
2019-02-03T23:19:55.533Z,3.50
2019-02-03T23:22:34.634Z,3.97
2019-02-03T23:25:07.847Z,3.97
2019-02-03T23:27:39.535Z,3.73
2019-02-03T23:30:14.639Z,4.20
2019-02-03T23:32:46.214Z,3.93
2019-02-03T23:35:18.120Z,3.50
2019-02-03T23:37:49.647Z,3.60
2019-02-03T23:40:21.271Z,3.50
2019-02-03T23:42:52.799Z,4.33
2019-02-03T23:45:24.347Z,3.90
2019-02-03T23:47:57.119Z,4.27
2019-02-03T23:50:28.696Z,5.00
2019-02-03T23:53:00.247Z,4.97
2019-02-03T23:55:31.724Z,4.40
2019-02-03T23:58:03.339Z,6.13
